createdAt,value
2016-12-11T00:00:16.335Z,25.23
2016-12-11T00:00:44.230Z,25.29
2016-12-11T00:01:12.102Z,25.28
2016-12-11T00:01:39.935Z,25.31
2016-12-11T00:02:07.763Z,25.25
2016-12-11T00:02:35.801Z,25.26
2016-12-11T00:03:03.699Z,25.22
2016-12-11T00:03:31.479Z,25.14
2016-12-11T00:03:59.328Z,25.18
2016-12-11T00:04:27.180Z,25.22
2016-12-11T00:04:55.011Z,25.22
2016-12-11T00:05:22.947Z,25.21
2016-12-11T00:05:50.867Z,25.16
2016-12-11T00:06:18.894Z,25.17
2016-12-11T00:06:46.746Z,25.16
2016-12-11T00:07:14.558Z,25.21
2016-12-11T00:07:42.432Z,25.17
2016-12-11T00:08:10.261Z,25.22
2016-12-11T00:08:38.099Z,25.26
2016-12-11T00:09:05.961Z,25.28
2016-12-11T00:09:33.846Z,25.22
2016-12-11T00:10:01.705Z,25.26
2016-12-11T00:10:29.572Z,25.17
2016-12-11T00:10:57.388Z,25.16
2016-12-11T00:11:25.251Z,25.14
2016-12-11T00:11:53.083Z,25.13
2016-12-11T00:12:20.972Z,25.13
2016-12-11T00:12:48.828Z,25.16
2016-12-11T00:13:16.695Z,25.14
2016-12-11T00:13:44.527Z,25.13
2016-12-11T00:14:12.516Z,25.14
2016-12-11T00:14:40.426Z,25.13
2016-12-11T00:15:08.285Z,25.14
2016-12-11T00:15:36.151Z,25.16
2016-12-11T00:16:03.971Z,25.07
2016-12-11T00:16:31.825Z,25.13
2016-12-11T00:16:59.682Z,25.13
2016-12-11T00:17:27.533Z,25.1
2016-12-11T00:17:55.419Z,25.13
2016-12-11T00:18:23.397Z,25.18
2016-12-11T00:18:51.208Z,25.16
2016-12-11T00:19:19.197Z,25.16
2016-12-11T00:19:47.085Z,25.13
2016-12-11T00:20:15.051Z,25.13
2016-12-11T00:20:42.911Z,25.16
2016-12-11T00:21:10.844Z,25.17
2016-12-11T00:21:38.780Z,25.17
2016-12-11T00:22:06.610Z,25.17
2016-12-11T00:22:34.494Z,25.18
2016-12-11T00:23:02.362Z,25.18
2016-12-11T00:23:30.190Z,25.11
2016-12-11T00:23:58.072Z,25.13
2016-12-11T00:24:26.045Z,25.14
2016-12-11T00:24:53.859Z,25.26
2016-12-11T00:25:21.785Z,25.26
2016-12-11T00:25:49.602Z,25.13
2016-12-11T00:26:17.456Z,25.21
2016-12-11T00:26:45.352Z,25.22
2016-12-11T00:27:13.238Z,25.13
2016-12-11T00:27:41.089Z,25.01
2016-12-11T00:28:08.919Z,25.08
2016-12-11T00:28:36.738Z,25.08
2016-12-11T00:29:04.605Z,25.06
2016-12-11T00:29:32.549Z,25.01
2016-12-11T00:30:00.407Z,25.1
2016-12-11T00:30:28.263Z,25.11
2016-12-11T00:30:56.123Z,25.01
2016-12-11T00:31:23.984Z,24.99
2016-12-11T00:31:51.776Z,25.04
2016-12-11T00:32:19.621Z,25.1
2016-12-11T00:32:47.444Z,25.03
2016-12-11T00:33:15.236Z,25.14
2016-12-11T00:33:43.102Z,25.11
2016-12-11T00:34:10.993Z,25.16
2016-12-11T00:34:38.878Z,25.14
2016-12-11T00:35:06.662Z,25.08
2016-12-11T00:35:34.511Z,25.13
2016-12-11T00:36:02.380Z,25.16
2016-12-11T00:36:30.185Z,25.1
2016-12-11T00:36:58.024Z,25.03
2016-12-11T00:37:25.914Z,25.03
2016-12-11T00:37:53.802Z,25.06
2016-12-11T00:38:21.695Z,25.08
2016-12-11T00:38:49.595Z,25.1
2016-12-11T00:39:17.471Z,24.99
2016-12-11T00:39:45.347Z,25.06
2016-12-11T00:40:13.280Z,25.06
2016-12-11T00:40:41.155Z,25.08
2016-12-11T00:41:09.012Z,25.16
2016-12-11T00:41:36.837Z,25.17
2016-12-11T00:42:04.659Z,25.1
2016-12-11T00:42:32.626Z,25.04
2016-12-11T00:43:00.479Z,25.11
2016-12-11T00:43:28.366Z,25.1
2016-12-11T00:43:56.204Z,25.18
2016-12-11T00:44:24.052Z,25.13
2016-12-11T00:44:51.914Z,25.16
2016-12-11T00:45:19.790Z,25.1
2016-12-11T00:45:47.630Z,25.13
2016-12-11T00:46:15.471Z,25.17
2016-12-11T00:46:43.309Z,25.1
2016-12-11T00:47:11.158Z,25.13
2016-12-11T00:47:38.949Z,25.13
2016-12-11T00:48:06.769Z,25.11
2016-12-11T00:48:34.557Z,25.1
2016-12-11T00:49:02.428Z,25.04
2016-12-11T00:49:30.286Z,25.06
2016-12-11T00:49:58.156Z,25.01
2016-12-11T00:50:26.093Z,25.06
2016-12-11T00:50:53.898Z,25.06
2016-12-11T00:51:21.732Z,25.01
2016-12-11T00:51:49.561Z,25.04
2016-12-11T00:52:17.433Z,25.01
2016-12-11T00:52:45.278Z,25.07
2016-12-11T00:53:13.123Z,25.03
2016-12-11T00:53:41.055Z,25.01
2016-12-11T00:54:08.917Z,24.99
2016-12-11T00:54:36.726Z,24.99
2016-12-11T00:55:04.593Z,25.11
2016-12-11T00:55:32.522Z,24.98
2016-12-11T00:56:00.363Z,25.01
2016-12-11T00:56:28.179Z,24.99
2016-12-11T00:56:56.014Z,24.99
2016-12-11T00:57:23.885Z,24.99
2016-12-11T00:57:51.783Z,25.16
2016-12-11T00:58:19.725Z,25.11
2016-12-11T00:58:47.622Z,25.04
2016-12-11T00:59:15.530Z,25.01
2016-12-11T00:59:43.345Z,25.11
2016-12-11T01:00:11.166Z,25.03
2016-12-11T01:00:39.038Z,25.03
2016-12-11T01:01:06.902Z,24.99
2016-12-11T01:01:34.842Z,25.06
2016-12-11T01:02:02.681Z,25.07
2016-12-11T01:02:30.603Z,24.99
2016-12-11T01:02:58.401Z,25.01
2016-12-11T01:03:26.279Z,25.04
2016-12-11T01:03:54.201Z,25.01
2016-12-11T01:04:22.011Z,24.88
2016-12-11T01:04:49.834Z,24.92
2016-12-11T01:05:17.675Z,24.91
2016-12-11T01:05:45.582Z,24.84
2016-12-11T01:06:13.429Z,24.89
2016-12-11T01:06:41.382Z,24.84
2016-12-11T01:07:09.220Z,24.81
2016-12-11T01:07:37.026Z,24.78
2016-12-11T01:08:04.891Z,24.86
2016-12-11T01:08:32.735Z,24.69
2016-12-11T01:09:00.589Z,24.76
2016-12-11T01:09:28.397Z,24.69
2016-12-11T01:09:56.306Z,24.69
2016-12-11T01:10:24.162Z,24.78
2016-12-11T01:10:51.998Z,24.76
2016-12-11T01:11:19.853Z,24.76
2016-12-11T01:11:47.653Z,24.68
2016-12-11T01:12:15.452Z,24.69
2016-12-11T01:12:43.283Z,24.7
2016-12-11T01:13:11.119Z,24.58
2016-12-11T01:13:39.123Z,24.63
2016-12-11T01:14:06.980Z,24.65
2016-12-11T01:14:34.809Z,24.55
2016-12-11T01:15:02.765Z,24.6
2016-12-11T01:15:30.633Z,24.66
2016-12-11T01:15:58.489Z,24.6
2016-12-11T01:16:26.294Z,24.57
2016-12-11T01:16:54.225Z,24.55
2016-12-11T01:17:22.032Z,24.6
2016-12-11T01:17:49.876Z,24.65
2016-12-11T01:18:17.902Z,24.63
2016-12-11T01:18:45.752Z,24.54
2016-12-11T01:19:13.584Z,24.55
2016-12-11T01:19:41.476Z,24.58
2016-12-11T01:20:09.301Z,24.6
2016-12-11T01:20:37.148Z,24.54
2016-12-11T01:21:05.028Z,24.57
2016-12-11T01:21:32.862Z,24.54
2016-12-11T01:22:00.859Z,24.57
2016-12-11T01:22:28.680Z,24.53
2016-12-11T01:22:56.520Z,24.53
2016-12-11T01:23:24.359Z,24.58
2016-12-11T01:23:52.237Z,24.68
2016-12-11T01:24:20.051Z,24.58
2016-12-11T01:24:47.863Z,24.61
2016-12-11T01:25:15.800Z,24.63
2016-12-11T01:25:43.645Z,24.63
2016-12-11T01:26:11.448Z,24.68
2016-12-11T01:26:39.286Z,24.73
2016-12-11T01:27:07.128Z,24.68
2016-12-11T01:27:34.984Z,24.73
2016-12-11T01:28:02.834Z,24.76
2016-12-11T01:28:30.659Z,24.77
2016-12-11T01:28:58.560Z,24.74
2016-12-11T01:29:26.618Z,24.76
2016-12-11T01:29:54.432Z,24.73
2016-12-11T01:30:22.281Z,24.74
2016-12-11T01:30:50.118Z,24.74
2016-12-11T01:31:18.058Z,24.78
2016-12-11T01:31:45.907Z,24.77
2016-12-11T01:32:13.771Z,24.8
2016-12-11T01:32:41.617Z,24.81
2016-12-11T01:33:09.452Z,24.8
2016-12-11T01:33:37.428Z,24.78
2016-12-11T01:34:05.263Z,24.8
2016-12-11T01:34:33.140Z,24.76
2016-12-11T01:35:01.005Z,24.85
2016-12-11T01:35:28.803Z,24.74
2016-12-11T01:35:56.706Z,24.76
2016-12-11T01:36:24.527Z,24.86
2016-12-11T01:36:52.448Z,24.78
2016-12-11T01:37:20.269Z,24.78
2016-12-11T01:37:48.150Z,24.76
2016-12-11T01:38:16.029Z,24.76
2016-12-11T01:38:43.861Z,24.78
2016-12-11T01:39:11.714Z,24.81
2016-12-11T01:39:39.584Z,24.73
2016-12-11T01:40:07.410Z,24.73
2016-12-11T01:40:35.235Z,24.76
2016-12-11T01:41:03.154Z,24.78
2016-12-11T01:41:31.055Z,24.7
2016-12-11T01:41:58.864Z,24.69
2016-12-11T01:42:26.684Z,24.7
2016-12-11T01:42:54.527Z,24.65
2016-12-11T01:43:22.368Z,24.65
2016-12-11T01:43:50.243Z,24.58
2016-12-11T01:44:18.082Z,24.58
2016-12-11T01:44:45.937Z,24.58
2016-12-11T01:45:13.796Z,24.68
2016-12-11T01:45:41.608Z,24.68
2016-12-11T01:46:09.578Z,24.7
2016-12-11T01:46:37.480Z,24.58
2016-12-11T01:47:05.314Z,24.66
2016-12-11T01:47:33.166Z,24.63
2016-12-11T01:48:01.054Z,24.63
2016-12-11T01:48:28.894Z,24.63
2016-12-11T01:48:56.771Z,24.61
2016-12-11T01:49:24.590Z,24.58
2016-12-11T01:49:52.414Z,24.55
2016-12-11T01:50:20.263Z,24.63
2016-12-11T01:50:48.111Z,24.66
2016-12-11T01:51:15.914Z,24.61
2016-12-11T01:51:43.740Z,24.69
2016-12-11T01:52:11.565Z,24.66
2016-12-11T01:52:39.417Z,24.65
2016-12-11T01:53:07.251Z,24.63
2016-12-11T01:53:35.117Z,24.6
2016-12-11T01:54:02.996Z,24.65
2016-12-11T01:54:30.872Z,24.63
2016-12-11T01:54:58.722Z,24.61
2016-12-11T01:55:26.554Z,24.6
2016-12-11T01:55:54.450Z,24.58
2016-12-11T01:56:22.322Z,24.58
2016-12-11T01:56:50.208Z,24.54
2016-12-11T01:57:18.041Z,24.57
2016-12-11T01:57:45.933Z,24.63
2016-12-11T01:58:13.807Z,24.54
2016-12-11T01:58:41.686Z,24.6
2016-12-11T01:59:09.561Z,24.58
2016-12-11T01:59:37.363Z,24.58
2016-12-11T02:00:05.240Z,24.55
2016-12-11T02:00:33.070Z,24.65
2016-12-11T02:01:00.931Z,24.63
2016-12-11T02:01:28.816Z,24.54
2016-12-11T02:01:56.661Z,24.55
2016-12-11T02:02:24.465Z,24.63
2016-12-11T02:02:52.298Z,24.58
2016-12-11T02:03:20.097Z,24.61
2016-12-11T02:03:47.952Z,24.45
2016-12-11T02:04:15.840Z,24.57
2016-12-11T02:04:43.778Z,24.43
2016-12-11T02:05:11.611Z,24.45
2016-12-11T02:05:39.461Z,24.45
2016-12-11T02:06:07.348Z,24.43
2016-12-11T02:06:35.157Z,24.42
2016-12-11T02:07:03.019Z,24.47
2016-12-11T02:07:30.878Z,24.48
2016-12-11T02:07:58.731Z,24.51
2016-12-11T02:08:26.564Z,24.48
2016-12-11T02:08:54.506Z,24.51
2016-12-11T02:09:22.472Z,24.57
2016-12-11T02:09:50.329Z,24.43
2016-12-11T02:10:18.115Z,24.43
2016-12-11T02:10:45.950Z,24.55
2016-12-11T02:11:13.743Z,24.54
2016-12-11T02:11:41.572Z,24.57
2016-12-11T02:12:09.511Z,24.53
2016-12-11T02:12:37.412Z,24.45
2016-12-11T02:13:05.341Z,24.54
2016-12-11T02:13:33.221Z,24.48
2016-12-11T02:14:01.075Z,24.42
2016-12-11T02:14:29.024Z,24.54
2016-12-11T02:14:56.876Z,24.47
2016-12-11T02:15:24.717Z,24.48
2016-12-11T02:15:52.589Z,24.48
2016-12-11T02:16:20.477Z,24.48
2016-12-11T02:16:48.334Z,24.45
2016-12-11T02:17:16.173Z,24.42
2016-12-11T02:17:44.029Z,24.47
2016-12-11T02:18:11.851Z,24.5
2016-12-11T02:18:39.635Z,24.43
2016-12-11T02:19:07.497Z,24.57
2016-12-11T02:19:35.333Z,24.54
2016-12-11T02:20:03.139Z,24.55
2016-12-11T02:20:31.067Z,24.48
2016-12-11T02:20:58.912Z,24.47
2016-12-11T02:21:26.762Z,24.55
2016-12-11T02:21:54.596Z,24.51
2016-12-11T02:22:22.474Z,24.5
2016-12-11T02:22:50.328Z,24.53
2016-12-11T02:23:18.217Z,24.42
2016-12-11T02:23:46.137Z,24.45
2016-12-11T02:24:14.012Z,24.42
2016-12-11T02:24:41.855Z,24.51
2016-12-11T02:25:09.719Z,24.42
2016-12-11T02:25:37.683Z,24.51
2016-12-11T02:26:05.505Z,24.42
2016-12-11T02:26:33.363Z,24.4
2016-12-11T02:27:01.214Z,24.51
2016-12-11T02:27:29.048Z,24.48
2016-12-11T02:27:56.915Z,24.51
2016-12-11T02:28:24.713Z,24.55
2016-12-11T02:28:52.730Z,24.48
2016-12-11T02:29:20.575Z,24.51
2016-12-11T02:29:48.398Z,24.47
2016-12-11T02:30:16.352Z,24.57
2016-12-11T02:30:44.261Z,24.47
2016-12-11T02:31:12.099Z,24.51
2016-12-11T02:31:39.945Z,24.54
2016-12-11T02:32:07.802Z,24.53
2016-12-11T02:32:35.622Z,24.47
2016-12-11T02:33:03.425Z,24.42
2016-12-11T02:33:31.247Z,24.45
2016-12-11T02:33:59.109Z,24.54
2016-12-11T02:34:26.897Z,24.53
2016-12-11T02:34:54.842Z,24.55
2016-12-11T02:35:22.741Z,24.58
2016-12-11T02:35:50.723Z,24.58
2016-12-11T02:36:18.527Z,24.55
2016-12-11T02:36:46.399Z,24.65
2016-12-11T02:37:14.266Z,24.61
2016-12-11T02:37:42.126Z,24.55
2016-12-11T02:38:09.988Z,24.66
2016-12-11T02:38:37.834Z,24.66
2016-12-11T02:39:05.749Z,24.61
2016-12-11T02:39:33.590Z,24.58
2016-12-11T02:40:01.376Z,24.69
2016-12-11T02:40:29.207Z,24.57
2016-12-11T02:40:57.042Z,24.68
2016-12-11T02:41:24.855Z,24.68
2016-12-11T02:41:52.664Z,24.73
2016-12-11T02:42:20.533Z,24.73
2016-12-11T02:42:48.370Z,24.68
2016-12-11T02:43:16.249Z,24.66
2016-12-11T02:43:44.114Z,24.69
2016-12-11T02:44:11.914Z,24.57
2016-12-11T02:44:39.731Z,24.58
2016-12-11T02:45:07.569Z,24.57
2016-12-11T02:45:35.432Z,24.63
2016-12-11T02:46:03.329Z,24.7
2016-12-11T02:46:31.202Z,24.63
2016-12-11T02:46:59.128Z,24.61
2016-12-11T02:47:27.035Z,24.68
2016-12-11T02:47:54.975Z,24.65
2016-12-11T02:48:22.845Z,24.6
2016-12-11T02:48:50.715Z,24.6
2016-12-11T02:49:18.687Z,24.58
2016-12-11T02:49:46.488Z,24.7
2016-12-11T02:50:14.369Z,24.6
2016-12-11T02:50:42.265Z,24.76
2016-12-11T02:51:10.121Z,24.7
2016-12-11T02:51:38.032Z,24.65
2016-12-11T02:52:05.869Z,24.7
2016-12-11T02:52:33.687Z,24.55
2016-12-11T02:53:01.489Z,24.65
2016-12-11T02:53:29.295Z,24.6
2016-12-11T02:53:57.151Z,24.58
2016-12-11T02:54:25.002Z,24.61
2016-12-11T02:54:52.820Z,24.58
2016-12-11T02:55:20.692Z,24.57
2016-12-11T02:55:48.539Z,24.55
2016-12-11T02:56:16.445Z,24.53
2016-12-11T02:56:44.379Z,24.47
2016-12-11T02:57:12.351Z,24.48
2016-12-11T02:57:40.187Z,24.55
2016-12-11T02:58:08.112Z,24.51
2016-12-11T02:58:35.934Z,24.51
2016-12-11T02:59:03.838Z,24.54
2016-12-11T02:59:31.698Z,24.43
2016-12-11T02:59:59.514Z,24.45
2016-12-11T03:00:27.495Z,24.4
2016-12-11T03:00:55.332Z,24.43
2016-12-11T03:01:23.186Z,24.45
2016-12-11T03:01:51.156Z,24.42
2016-12-11T03:02:18.935Z,24.47
2016-12-11T03:02:46.786Z,24.45
2016-12-11T03:03:14.603Z,24.38
2016-12-11T03:03:42.494Z,24.43
2016-12-11T03:04:10.346Z,24.45
2016-12-11T03:04:38.199Z,24.43
2016-12-11T03:05:06.066Z,24.35
2016-12-11T03:05:33.909Z,24.35
2016-12-11T03:06:01.765Z,24.38
2016-12-11T03:06:29.591Z,24.42
2016-12-11T03:06:57.394Z,24.42
2016-12-11T03:07:25.232Z,24.36
2016-12-11T03:07:53.095Z,24.35
2016-12-11T03:08:21.182Z,24.38
2016-12-11T03:08:48.994Z,24.32
2016-12-11T03:09:16.823Z,24.36
2016-12-11T03:09:44.662Z,24.35
2016-12-11T03:10:12.528Z,24.35
2016-12-11T03:10:40.336Z,24.33
2016-12-11T03:11:08.225Z,24.3
2016-12-11T03:11:36.288Z,24.29
2016-12-11T03:12:04.173Z,24.36
2016-12-11T03:12:32.032Z,24.35
2016-12-11T03:12:59.969Z,24.23
2016-12-11T03:13:27.810Z,24.2
2016-12-11T03:13:55.693Z,24.23
2016-12-11T03:14:23.542Z,24.26
2016-12-11T03:14:51.338Z,24.2
2016-12-11T03:15:19.296Z,24.2
2016-12-11T03:15:47.176Z,24.24
2016-12-11T03:16:14.995Z,24.24
2016-12-11T03:16:42.829Z,24.26
2016-12-11T03:17:10.692Z,24.29
2016-12-11T03:17:38.575Z,24.21
2016-12-11T03:18:06.432Z,24.29
2016-12-11T03:18:34.313Z,24.26
2016-12-11T03:19:02.195Z,24.26
2016-12-11T03:19:30.032Z,24.2
2016-12-11T03:19:57.904Z,24.3
2016-12-11T03:20:25.766Z,24.26
2016-12-11T03:20:53.572Z,24.32
2016-12-11T03:21:21.509Z,24.32
2016-12-11T03:21:49.370Z,24.18
2016-12-11T03:22:17.147Z,24.18
2016-12-11T03:22:45.006Z,24.29
2016-12-11T03:23:12.878Z,24.32
2016-12-11T03:23:40.698Z,24.33
2016-12-11T03:24:08.542Z,24.29
2016-12-11T03:24:36.407Z,24.35
2016-12-11T03:25:04.298Z,24.33
2016-12-11T03:25:32.096Z,24.32
2016-12-11T03:25:59.970Z,24.3
2016-12-11T03:26:27.822Z,24.33
2016-12-11T03:26:55.624Z,24.18
2016-12-11T03:27:23.553Z,24.21
2016-12-11T03:27:51.364Z,24.17
2016-12-11T03:28:19.252Z,24.18
2016-12-11T03:28:47.063Z,24.2
2016-12-11T03:29:14.873Z,24.18
2016-12-11T03:29:42.693Z,24.11
2016-12-11T03:30:10.582Z,24.1
2016-12-11T03:30:38.398Z,24.08
2016-12-11T03:31:06.272Z,24.03
2016-12-11T03:31:34.066Z,24.05
2016-12-11T03:32:01.846Z,23.95
2016-12-11T03:32:29.757Z,23.98
2016-12-11T03:32:57.610Z,23.95
2016-12-11T03:33:25.432Z,23.92
2016-12-11T03:33:53.278Z,23.88
2016-12-11T03:34:21.116Z,23.88
2016-12-11T03:34:48.952Z,23.87
2016-12-11T03:35:16.821Z,23.88
2016-12-11T03:35:44.644Z,23.86
2016-12-11T03:36:12.493Z,23.88
2016-12-11T03:36:40.336Z,23.91
2016-12-11T03:37:08.155Z,23.81
2016-12-11T03:37:36.048Z,23.84
2016-12-11T03:38:03.870Z,23.98
2016-12-11T03:38:31.694Z,23.92
2016-12-11T03:38:59.566Z,23.95
2016-12-11T03:39:27.404Z,23.93
2016-12-11T03:39:55.221Z,23.87
2016-12-11T03:40:23.092Z,23.91
2016-12-11T03:40:50.916Z,23.88
2016-12-11T03:41:18.731Z,23.88
2016-12-11T03:41:46.556Z,23.87
2016-12-11T03:42:14.359Z,23.91
2016-12-11T03:42:42.230Z,23.84
2016-12-11T03:43:10.114Z,23.8
2016-12-11T03:43:37.954Z,23.81
2016-12-11T03:44:05.788Z,23.87
2016-12-11T03:44:33.643Z,23.81
2016-12-11T03:45:01.520Z,23.8
2016-12-11T03:45:29.441Z,23.8
2016-12-11T03:45:57.254Z,23.84
2016-12-11T03:46:25.106Z,23.77
2016-12-11T03:46:53.047Z,23.84
2016-12-11T03:47:20.882Z,23.87
2016-12-11T03:47:48.710Z,23.84
2016-12-11T03:48:16.586Z,23.78
2016-12-11T03:48:44.434Z,23.78
2016-12-11T03:49:12.261Z,23.83
2016-12-11T03:49:40.107Z,23.87
2016-12-11T03:50:08.046Z,23.8
2016-12-11T03:50:35.898Z,23.83
2016-12-11T03:51:03.744Z,23.88
2016-12-11T03:51:31.612Z,23.8
2016-12-11T03:51:59.410Z,23.83
2016-12-11T03:52:27.237Z,23.84
2016-12-11T03:52:55.065Z,23.86
2016-12-11T03:53:22.909Z,23.87
2016-12-11T03:53:50.722Z,23.87
2016-12-11T03:54:18.538Z,23.83
2016-12-11T03:54:46.359Z,23.84
2016-12-11T03:55:14.230Z,23.87
2016-12-11T03:55:42.055Z,23.77
2016-12-11T03:56:09.885Z,23.78
2016-12-11T03:56:37.759Z,23.8
2016-12-11T03:57:05.585Z,23.84
2016-12-11T03:57:33.362Z,23.84
2016-12-11T03:58:01.194Z,23.84
2016-12-11T03:58:29.056Z,23.84
2016-12-11T03:58:56.858Z,23.88
2016-12-11T03:59:24.714Z,23.84
2016-12-11T03:59:52.496Z,23.91
2016-12-11T04:00:20.361Z,23.86
2016-12-11T04:00:48.256Z,23.88
2016-12-11T04:01:16.100Z,23.83
2016-12-11T04:01:44.009Z,23.81
2016-12-11T04:02:11.810Z,23.84
2016-12-11T04:02:39.663Z,23.84
2016-12-11T04:03:07.518Z,23.86
2016-12-11T04:03:35.458Z,23.84
2016-12-11T04:04:03.303Z,23.86
2016-12-11T04:04:31.187Z,23.78
2016-12-11T04:04:59.143Z,23.91
2016-12-11T04:05:27.042Z,23.84
2016-12-11T04:05:54.894Z,23.86
2016-12-11T04:06:22.765Z,23.87
2016-12-11T04:06:50.596Z,23.83
2016-12-11T04:07:18.485Z,23.86
2016-12-11T04:07:46.412Z,23.83
2016-12-11T04:08:14.271Z,23.87
2016-12-11T04:08:42.051Z,23.8
2016-12-11T04:09:09.882Z,23.92
2016-12-11T04:09:37.730Z,23.8
2016-12-11T04:10:05.611Z,23.84
2016-12-11T04:10:33.434Z,23.81
2016-12-11T04:11:01.260Z,23.83
2016-12-11T04:11:29.151Z,23.8
2016-12-11T04:11:57.074Z,23.77
2016-12-11T04:12:24.909Z,23.81
2016-12-11T04:12:52.752Z,23.8
2016-12-11T04:13:20.612Z,23.76
2016-12-11T04:13:48.508Z,23.76
2016-12-11T04:14:16.356Z,23.71
2016-12-11T04:14:44.187Z,23.69
2016-12-11T04:15:11.974Z,23.71
2016-12-11T04:15:39.845Z,23.62
2016-12-11T04:16:07.724Z,23.66
2016-12-11T04:16:35.569Z,23.74
2016-12-11T04:17:03.383Z,23.66
2016-12-11T04:17:31.160Z,23.71
2016-12-11T04:17:59.019Z,23.69
2016-12-11T04:18:26.884Z,23.76
2016-12-11T04:18:54.697Z,23.73
2016-12-11T04:19:22.655Z,23.71
2016-12-11T04:19:50.499Z,23.71
2016-12-11T04:20:18.390Z,23.68
2016-12-11T04:20:46.234Z,23.69
2016-12-11T04:21:14.078Z,23.77
2016-12-11T04:21:41.906Z,23.69
2016-12-11T04:22:09.743Z,23.73
2016-12-11T04:22:37.619Z,23.62
2016-12-11T04:23:05.414Z,23.66
2016-12-11T04:23:33.248Z,23.66
2016-12-11T04:24:01.096Z,23.68
2016-12-11T04:24:29.058Z,23.68
2016-12-11T04:24:56.857Z,23.71
2016-12-11T04:25:24.741Z,23.65
2016-12-11T04:25:52.587Z,23.69
2016-12-11T04:26:20.436Z,23.71
2016-12-11T04:26:48.265Z,23.84
2016-12-11T04:27:16.150Z,23.71
2016-12-11T04:27:44.063Z,23.68
2016-12-11T04:28:11.895Z,23.69
2016-12-11T04:28:39.778Z,23.73
2016-12-11T04:29:07.609Z,23.74
2016-12-11T04:29:35.470Z,23.65
2016-12-11T04:30:03.260Z,23.66
2016-12-11T04:30:31.097Z,23.66
2016-12-11T04:30:58.956Z,23.66
2016-12-11T04:31:26.810Z,23.68
2016-12-11T04:31:54.630Z,23.71
2016-12-11T04:32:22.459Z,23.66
2016-12-11T04:32:50.309Z,23.68
2016-12-11T04:33:18.147Z,23.66
2016-12-11T04:33:46.027Z,23.65
2016-12-11T04:34:13.883Z,23.69
2016-12-11T04:34:41.724Z,23.69
2016-12-11T04:35:09.711Z,23.74
2016-12-11T04:35:37.488Z,23.71
2016-12-11T04:36:05.332Z,23.71
2016-12-11T04:36:33.130Z,23.69
2016-12-11T04:37:00.995Z,23.69
2016-12-11T04:37:28.791Z,23.65
2016-12-11T04:37:56.689Z,23.69
2016-12-11T04:38:24.500Z,23.68
2016-12-11T04:38:52.352Z,23.73
2016-12-11T04:39:20.259Z,23.73
2016-12-11T04:39:48.083Z,23.66
2016-12-11T04:40:15.901Z,23.71
2016-12-11T04:40:43.763Z,23.74
2016-12-11T04:41:11.723Z,23.66
2016-12-11T04:41:39.550Z,23.74
2016-12-11T04:42:07.407Z,23.76
2016-12-11T04:42:35.281Z,23.76
2016-12-11T04:43:03.125Z,23.71
2016-12-11T04:43:30.993Z,23.73
2016-12-11T04:43:58.847Z,23.74
2016-12-11T04:44:26.736Z,23.73
2016-12-11T04:44:54.641Z,23.73
2016-12-11T04:45:22.577Z,23.78
2016-12-11T04:45:50.399Z,23.74
2016-12-11T04:46:18.290Z,23.77
2016-12-11T04:46:46.123Z,23.74
2016-12-11T04:47:13.997Z,23.77
2016-12-11T04:47:41.978Z,23.69
2016-12-11T04:48:09.828Z,23.71
2016-12-11T04:48:37.751Z,23.74
2016-12-11T04:49:05.604Z,23.74
2016-12-11T04:49:33.405Z,23.68
2016-12-11T04:50:01.248Z,23.73
2016-12-11T04:50:29.124Z,23.77
2016-12-11T04:50:56.955Z,23.74
2016-12-11T04:51:24.829Z,23.68
2016-12-11T04:51:52.674Z,23.62
2016-12-11T04:52:20.576Z,23.71
2016-12-11T04:52:48.403Z,23.63
2016-12-11T04:53:16.266Z,23.71
2016-12-11T04:53:44.108Z,23.66
2016-12-11T04:54:11.956Z,23.69
2016-12-11T04:54:39.768Z,23.71
2016-12-11T04:55:07.622Z,23.69
2016-12-11T04:55:35.451Z,23.62
2016-12-11T04:56:03.313Z,23.65
2016-12-11T04:56:31.148Z,23.68
2016-12-11T04:56:58.965Z,23.71
2016-12-11T04:57:26.765Z,23.66
2016-12-11T04:57:54.605Z,23.74
2016-12-11T04:58:22.484Z,23.73
2016-12-11T04:58:50.334Z,23.65
2016-12-11T04:59:18.175Z,23.68
2016-12-11T04:59:45.964Z,23.66
2016-12-11T05:00:13.782Z,23.71
2016-12-11T05:00:41.629Z,23.71
2016-12-11T05:01:09.496Z,23.69
2016-12-11T05:01:37.325Z,23.68
2016-12-11T05:02:05.190Z,23.77
2016-12-11T05:02:33.052Z,23.62
2016-12-11T05:03:00.897Z,23.69
2016-12-11T05:03:28.735Z,23.66
2016-12-11T05:03:56.611Z,23.69
2016-12-11T05:04:24.471Z,23.71
2016-12-11T05:04:52.313Z,23.69
2016-12-11T05:05:20.175Z,23.66
2016-12-11T05:05:48.026Z,23.73
2016-12-11T05:06:15.880Z,23.69
2016-12-11T05:06:43.724Z,23.68
2016-12-11T05:07:11.538Z,23.66
2016-12-11T05:07:39.377Z,23.59
2016-12-11T05:08:07.212Z,23.69
2016-12-11T05:08:35.072Z,23.66
2016-12-11T05:09:02.935Z,23.66
2016-12-11T05:09:30.805Z,23.62
2016-12-11T05:09:58.616Z,23.74
2016-12-11T05:10:26.474Z,23.73
2016-12-11T05:10:54.333Z,23.73
2016-12-11T05:11:22.158Z,23.61
2016-12-11T05:11:50.020Z,23.68
2016-12-11T05:12:17.873Z,23.73
2016-12-11T05:12:45.716Z,23.68
2016-12-11T05:13:13.725Z,23.76
2016-12-11T05:13:41.619Z,23.68
2016-12-11T05:14:09.389Z,23.69
2016-12-11T05:14:37.267Z,23.69
2016-12-11T05:15:05.199Z,23.69
2016-12-11T05:15:33.004Z,23.68
2016-12-11T05:16:00.820Z,23.65
2016-12-11T05:16:28.709Z,23.71
2016-12-11T05:16:56.579Z,23.68
2016-12-11T05:17:24.434Z,23.65
2016-12-11T05:17:52.248Z,23.68
2016-12-11T05:18:20.092Z,23.69
2016-12-11T05:18:47.930Z,23.68
2016-12-11T05:19:15.747Z,23.73
2016-12-11T05:19:43.619Z,23.69
2016-12-11T05:20:11.584Z,23.62
2016-12-11T05:20:39.395Z,23.66
2016-12-11T05:21:07.253Z,23.62
2016-12-11T05:21:35.077Z,23.63
2016-12-11T05:22:02.944Z,23.68
2016-12-11T05:22:30.782Z,23.65
2016-12-11T05:22:58.595Z,23.68
2016-12-11T05:23:26.547Z,23.65
2016-12-11T05:23:54.414Z,23.58
2016-12-11T05:24:22.275Z,23.66
2016-12-11T05:24:50.119Z,23.62
2016-12-11T05:25:17.954Z,23.68
2016-12-11T05:25:45.827Z,23.62
2016-12-11T05:26:13.655Z,23.65
2016-12-11T05:26:41.493Z,23.74
2016-12-11T05:27:09.361Z,23.66
2016-12-11T05:27:37.212Z,23.68
2016-12-11T05:28:05.035Z,23.59
2016-12-11T05:28:32.855Z,23.66
2016-12-11T05:29:00.692Z,23.76
2016-12-11T05:29:28.558Z,23.74
2016-12-11T05:29:56.396Z,23.73
2016-12-11T05:30:24.293Z,23.74
2016-12-11T05:30:52.190Z,23.69
2016-12-11T05:31:20.075Z,23.66
2016-12-11T05:31:47.879Z,23.62
2016-12-11T05:32:15.693Z,23.65
2016-12-11T05:32:43.482Z,23.66
2016-12-11T05:33:11.296Z,23.66
2016-12-11T05:33:39.125Z,23.66
2016-12-11T05:34:07.022Z,23.73
2016-12-11T05:34:34.886Z,23.63
2016-12-11T05:35:02.751Z,23.74
2016-12-11T05:35:30.602Z,23.71
2016-12-11T05:35:58.400Z,23.63
2016-12-11T05:36:26.200Z,23.59
2016-12-11T05:36:54.067Z,23.68
2016-12-11T05:37:21.937Z,23.66
2016-12-11T05:37:49.751Z,23.68
2016-12-11T05:38:17.646Z,23.69
2016-12-11T05:38:45.511Z,23.66
2016-12-11T05:39:13.357Z,23.68
2016-12-11T05:39:41.187Z,23.73
2016-12-11T05:40:09.065Z,23.63
2016-12-11T05:40:36.918Z,23.62
2016-12-11T05:41:04.816Z,23.61
2016-12-11T05:41:32.730Z,23.61
2016-12-11T05:42:00.572Z,23.71
2016-12-11T05:42:28.423Z,23.68
2016-12-11T05:42:56.295Z,23.61
2016-12-11T05:43:24.169Z,23.68
2016-12-11T05:43:52.052Z,23.62
2016-12-11T05:44:19.912Z,23.65
2016-12-11T05:44:47.791Z,23.58
2016-12-11T05:45:15.624Z,23.61
2016-12-11T05:45:43.520Z,23.58
2016-12-11T05:46:11.403Z,23.62
2016-12-11T05:46:39.226Z,23.65
2016-12-11T05:47:07.033Z,23.71
2016-12-11T05:47:34.913Z,23.68
2016-12-11T05:48:02.756Z,23.69
2016-12-11T05:48:30.593Z,23.63
2016-12-11T05:48:58.419Z,23.59
2016-12-11T05:49:26.243Z,23.69
2016-12-11T05:49:54.130Z,23.62
2016-12-11T05:50:21.992Z,23.73
2016-12-11T05:50:49.884Z,23.68
2016-12-11T05:51:17.749Z,23.59
2016-12-11T05:51:45.601Z,23.68
2016-12-11T05:52:13.400Z,23.62
2016-12-11T05:52:41.243Z,23.69
2016-12-11T05:53:09.132Z,23.59
2016-12-11T05:53:37.632Z,23.59
2016-12-11T05:54:05.475Z,23.68
2016-12-11T05:54:33.346Z,23.62
2016-12-11T05:55:01.209Z,23.68
2016-12-11T05:55:29.045Z,23.63
2016-12-11T05:55:56.897Z,23.56
2016-12-11T05:56:24.699Z,23.63
2016-12-11T05:56:52.534Z,23.62
2016-12-11T05:57:20.798Z,23.62
2016-12-11T05:57:48.661Z,23.63
2016-12-11T05:58:16.519Z,23.63
2016-12-11T05:58:44.417Z,23.73
2016-12-11T05:59:12.260Z,23.77
2016-12-11T05:59:40.078Z,23.65